createdAt,value
2023-04-18T00:01:23.727Z,7.00
2023-04-18T00:04:11.502Z,6.90
2023-04-18T00:06:59.042Z,6.90
2023-04-18T00:09:46.353Z,7.00
2023-04-18T00:12:34.460Z,7.00
2023-04-18T00:15:22.105Z,7.00
2023-04-18T00:18:10.500Z,7.00
2023-04-18T00:20:57.844Z,7.10
2023-04-18T00:23:46.193Z,7.10
2023-04-18T00:26:33.640Z,7.00
2023-04-18T00:29:22.043Z,6.90
2023-04-18T00:32:09.420Z,6.70
2023-04-18T00:34:56.668Z,6.60
2023-04-18T00:37:43.946Z,6.60
2023-04-18T00:40:31.353Z,6.60
2023-04-18T00:43:18.550Z,6.70
2023-04-18T00:46:06.501Z,6.60
2023-04-18T00:48:54.470Z,6.60
2023-04-18T00:51:41.872Z,6.50
2023-04-18T00:54:29.834Z,6.50
2023-04-18T00:57:17.393Z,6.40
2023-04-18T01:00:09.029Z,6.40
2023-04-18T01:02:56.583Z,6.50
2023-04-18T01:05:45.417Z,6.40
2023-04-18T01:08:32.908Z,6.40
2023-04-18T01:11:20.555Z,6.40
2023-04-18T01:14:08.445Z,6.30
2023-04-18T01:16:57.606Z,6.40
2023-04-18T01:19:46.911Z,6.20
2023-04-18T01:22:34.222Z,6.20
2023-04-18T01:25:21.582Z,6.30
2023-04-18T01:28:08.885Z,6.40
2023-04-18T01:30:56.201Z,6.40
2023-04-18T01:33:44.282Z,6.60
2023-04-18T01:36:32.113Z,6.60
2023-04-18T01:39:19.411Z,6.80
2023-04-18T01:42:06.674Z,6.90
2023-04-18T01:44:53.967Z,6.80
2023-04-18T01:47:41.285Z,7.00
2023-04-18T01:50:32.131Z,7.00
2023-04-18T01:53:19.408Z,7.00
2023-04-18T01:56:06.897Z,7.00
2023-04-18T01:58:55.263Z,7.00
2023-04-18T02:01:43.473Z,7.00
2023-04-18T02:04:30.862Z,7.00
2023-04-18T02:07:18.173Z,7.00
2023-04-18T02:10:06.238Z,7.00
2023-04-18T02:12:53.570Z,7.00
2023-04-18T02:15:40.985Z,7.00
2023-04-18T02:18:28.230Z,7.00
2023-04-18T02:21:15.584Z,6.90
2023-04-18T02:24:02.852Z,6.80
2023-04-18T02:26:50.225Z,6.70
2023-04-18T02:29:39.545Z,6.80
2023-04-18T02:32:26.868Z,6.70
2023-04-18T02:35:14.604Z,6.60
2023-04-18T02:38:01.890Z,6.70
2023-04-18T02:40:49.179Z,6.70
2023-04-18T02:43:36.408Z,6.50
2023-04-18T02:46:23.800Z,6.50
2023-04-18T02:49:11.239Z,6.50
2023-04-18T02:51:58.489Z,6.40
2023-04-18T02:54:46.001Z,6.50
2023-04-18T02:57:39.637Z,6.40
2023-04-18T03:00:50.699Z,6.50
2023-04-18T03:03:57.859Z,6.30
2023-04-18T03:06:53.510Z,6.20
2023-04-18T03:09:41.903Z,6.10
2023-04-18T03:12:43.314Z,6.10
2023-04-18T03:15:31.486Z,6.00
2023-04-18T03:18:19.345Z,5.90
2023-04-18T03:21:07.343Z,6.00
2023-04-18T03:23:56.356Z,5.80
2023-04-18T03:26:44.015Z,5.70
2023-04-18T03:29:31.504Z,5.80
2023-04-18T03:32:19.473Z,5.80
2023-04-18T03:35:06.844Z,5.70
2023-04-18T03:37:54.495Z,5.80
2023-04-18T03:40:49.061Z,5.70
2023-04-18T03:43:44.113Z,5.80
2023-04-18T03:46:32.133Z,5.70
2023-04-18T03:49:19.547Z,5.70
2023-04-18T03:52:06.923Z,5.70
2023-04-18T03:54:54.299Z,5.60
2023-04-18T03:57:46.090Z,5.60
2023-04-18T04:00:40.305Z,5.60
2023-04-18T04:03:31.474Z,5.50
2023-04-18T04:06:18.953Z,5.50
2023-04-18T04:09:06.476Z,5.40
2023-04-18T04:11:53.958Z,5.50
2023-04-18T04:14:41.725Z,5.40
2023-04-18T04:17:29.559Z,5.50
2023-04-18T04:20:23.081Z,5.60
2023-04-18T04:23:13.503Z,5.80
2023-04-18T04:26:05.720Z,5.90
2023-04-18T04:29:13.933Z,6.00
2023-04-18T04:32:05.736Z,6.10
2023-04-18T04:34:58.406Z,6.20
2023-04-18T04:37:46.517Z,6.20
2023-04-18T04:40:44.027Z,6.40
2023-04-18T04:43:33.689Z,6.30
2023-04-18T04:46:21.377Z,6.30
2023-04-18T04:49:13.609Z,6.30
2023-04-18T04:52:03.177Z,6.30
2023-04-18T04:54:51.638Z,6.40
2023-04-18T04:57:40.647Z,6.40
2023-04-18T05:00:43.707Z,6.40
2023-04-18T05:03:31.463Z,6.40
2023-04-18T05:06:20.891Z,6.50
2023-04-18T05:09:08.221Z,6.50
2023-04-18T05:11:55.689Z,6.60
2023-04-18T05:14:42.974Z,6.70
2023-04-18T05:17:30.493Z,6.70
2023-04-18T05:20:17.776Z,6.80
2023-04-18T05:23:05.180Z,7.00
2023-04-18T05:25:52.582Z,6.80
2023-04-18T05:28:39.882Z,7.00
2023-04-18T05:31:27.666Z,7.10
2023-04-18T05:34:15.248Z,7.10
2023-04-18T05:37:02.802Z,7.30
2023-04-18T05:39:50.186Z,7.20
2023-04-18T05:42:37.450Z,7.20
2023-04-18T05:45:24.678Z,7.30
2023-04-18T05:48:12.392Z,7.30
2023-04-18T05:50:59.873Z,7.40
2023-04-18T05:53:47.192Z,7.40
2023-04-18T05:56:34.592Z,7.40
2023-04-18T05:59:21.984Z,7.60
2023-04-18T06:02:13.562Z,7.50
2023-04-18T06:05:01.528Z,7.40
2023-04-18T06:07:49.053Z,7.60
2023-04-18T06:10:38.497Z,7.60
2023-04-18T06:13:26.491Z,7.70
2023-04-18T06:16:14.020Z,7.70
2023-04-18T06:19:02.528Z,7.70
2023-04-18T06:21:50.200Z,7.80
2023-04-18T06:24:37.545Z,7.90
2023-04-18T06:27:31.008Z,8.00
2023-04-18T06:30:22.117Z,8.00
2023-04-18T06:33:12.435Z,8.20
2023-04-18T06:35:59.716Z,8.40
2023-04-18T06:38:47.005Z,8.60
2023-04-18T06:41:34.508Z,8.50
2023-04-18T06:44:21.798Z,8.60
2023-04-18T06:47:09.470Z,8.70
2023-04-18T06:49:56.738Z,8.60
2023-04-18T06:52:46.705Z,8.60
2023-04-18T06:55:33.970Z,8.60
2023-04-18T06:58:21.258Z,8.70
2023-04-18T07:01:08.785Z,8.70
2023-04-18T07:03:56.506Z,8.70
2023-04-18T07:06:44.209Z,8.80
2023-04-18T07:09:32.108Z,8.90
2023-04-18T07:12:20.396Z,8.80
2023-04-18T07:15:10.714Z,8.80
2023-04-18T07:18:00.067Z,8.90
2023-04-18T07:20:52.929Z,9.30
2023-04-18T07:23:42.324Z,9.50
2023-04-18T07:26:30.999Z,9.40
2023-04-18T07:29:21.825Z,9.40
2023-04-18T07:32:09.297Z,9.60
2023-04-18T07:34:57.397Z,10.00
2023-04-18T07:37:44.729Z,10.30
2023-04-18T07:40:31.997Z,10.50
2023-04-18T07:43:20.866Z,10.30
2023-04-18T07:46:08.367Z,10.50
2023-04-18T07:48:55.863Z,10.60
2023-04-18T07:51:43.170Z,10.80
2023-04-18T07:54:30.694Z,10.60
2023-04-18T07:57:18.006Z,10.70
2023-04-18T08:00:06.451Z,10.80
2023-04-18T08:03:00.041Z,10.70
2023-04-18T08:05:47.432Z,10.80
2023-04-18T08:08:34.720Z,11.00
2023-04-18T08:11:22.068Z,11.20
2023-04-18T08:14:09.382Z,11.30
2023-04-18T08:16:56.705Z,11.20
2023-04-18T08:19:45.138Z,11.40
2023-04-18T08:22:32.539Z,11.50
2023-04-18T08:25:19.784Z,11.60
2023-04-18T08:28:07.206Z,11.20
2023-04-18T08:30:56.617Z,11.30
2023-04-18T08:33:44.015Z,11.00
2023-04-18T08:36:31.683Z,10.70
2023-04-18T08:39:18.984Z,10.30
2023-04-18T08:42:06.648Z,10.10
2023-04-18T08:44:54.148Z,10.00
2023-04-18T08:47:42.120Z,10.30
2023-04-18T08:50:29.407Z,10.80
2023-04-18T08:53:17.813Z,10.90
2023-04-18T08:56:05.633Z,11.20
2023-04-18T08:58:53.601Z,11.20
2023-04-18T09:02:01.624Z,11.30
2023-04-18T09:04:52.753Z,11.20
2023-04-18T09:07:40.756Z,11.60
2023-04-18T09:10:35.027Z,11.90
2023-04-18T09:13:38.559Z,12.30
2023-04-18T09:16:27.635Z,12.90
2023-04-18T09:19:18.282Z,12.60
2023-04-18T09:22:08.140Z,12.80
2023-04-18T09:24:57.463Z,13.00
2023-04-18T09:27:44.762Z,13.00
2023-04-18T09:30:33.154Z,12.90
2023-04-18T09:33:32.690Z,13.20
2023-04-18T09:36:21.545Z,13.70
2023-04-18T09:39:08.932Z,13.20
2023-04-18T09:41:59.328Z,13.00
2023-04-18T09:44:58.622Z,12.90
2023-04-18T09:47:46.202Z,13.30
2023-04-18T09:50:33.970Z,13.50
2023-04-18T09:53:21.491Z,13.60
2023-04-18T09:56:10.240Z,13.90
2023-04-18T09:59:03.356Z,13.80
2023-04-18T10:01:51.523Z,13.70
2023-04-18T10:04:39.062Z,13.60
2023-04-18T10:07:27.337Z,13.50
2023-04-18T10:10:14.834Z,13.50
2023-04-18T10:13:03.290Z,13.40
2023-04-18T10:15:52.519Z,13.70
2023-04-18T10:18:39.904Z,13.50
2023-04-18T10:21:28.611Z,13.40
2023-04-18T10:24:34.567Z,13.50
2023-04-18T10:27:40.910Z,13.30
2023-04-18T10:30:40.567Z,13.20
2023-04-18T10:33:34.049Z,13.60
2023-04-18T10:36:21.640Z,14.20
2023-04-18T10:39:22.002Z,14.40
2023-04-18T10:42:09.209Z,14.40
2023-04-18T10:45:31.113Z,14.90
2023-04-18T10:48:30.155Z,14.60
2023-04-18T10:51:23.616Z,14.80
2023-04-18T10:54:12.048Z,15.10
2023-04-18T10:57:00.281Z,15.90
2023-04-18T10:59:51.552Z,17.50
2023-04-18T11:02:39.463Z,18.80
2023-04-18T11:05:28.682Z,20.40
2023-04-18T11:08:24.967Z,19.90
2023-04-18T11:11:13.284Z,20.20
2023-04-18T11:14:00.644Z,19.80
2023-04-18T11:16:47.974Z,18.70
2023-04-18T11:19:35.339Z,19.40
2023-04-18T11:22:22.651Z,18.90
2023-04-18T11:25:10.173Z,18.80
2023-04-18T11:28:01.720Z,17.80
2023-04-18T11:30:49.005Z,17.20
2023-04-18T11:33:36.345Z,17.00
2023-04-18T11:36:23.609Z,16.80
2023-04-18T11:39:11.072Z,16.40
2023-04-18T11:41:59.356Z,15.90
2023-04-18T11:44:47.201Z,15.80
2023-04-18T11:47:34.576Z,15.90
2023-04-18T11:50:21.853Z,16.00
2023-04-18T11:53:09.094Z,15.10
2023-04-18T11:55:56.565Z,14.80
2023-04-18T11:58:43.868Z,14.60
2023-04-18T12:01:31.125Z,14.40
2023-04-18T12:04:19.260Z,14.30
2023-04-18T12:07:07.732Z,14.30
2023-04-18T12:09:54.987Z,14.40
2023-04-18T12:12:47.539Z,14.60
2023-04-18T12:15:38.760Z,15.20
2023-04-18T12:18:26.615Z,15.00
2023-04-18T12:21:17.025Z,15.50
2023-04-18T12:24:13.424Z,15.60
2023-04-18T12:27:00.923Z,16.60
2023-04-18T12:29:48.180Z,16.90
2023-04-18T12:32:35.982Z,18.30
2023-04-18T12:35:23.735Z,18.20
2023-04-18T12:38:11.241Z,18.70
2023-04-18T12:40:58.538Z,18.80
2023-04-18T12:43:45.866Z,18.80
2023-04-18T12:46:33.123Z,17.40
2023-04-18T12:49:20.588Z,16.50
2023-04-18T12:52:07.825Z,15.50
2023-04-18T12:54:56.687Z,14.80
2023-04-18T12:57:43.994Z,14.70
2023-04-18T13:00:31.984Z,14.60
2023-04-18T13:03:19.519Z,15.10
2023-04-18T13:06:07.046Z,15.40
2023-04-18T13:08:54.371Z,15.80
2023-04-18T13:11:41.683Z,15.80
2023-04-18T13:14:29.158Z,16.30
2023-04-18T13:17:16.583Z,16.30
2023-04-18T13:20:06.546Z,16.00
2023-04-18T13:22:53.844Z,17.10
2023-04-18T13:25:41.328Z,16.90
2023-04-18T13:28:28.667Z,17.00
2023-04-18T13:31:17.235Z,17.70
2023-04-18T13:34:04.990Z,17.10
2023-04-18T13:36:52.236Z,16.90
2023-04-18T13:39:40.388Z,16.90
2023-04-18T13:42:27.669Z,17.00
2023-04-18T13:45:14.947Z,17.00
2023-04-18T13:48:02.207Z,16.20
2023-04-18T13:50:49.497Z,16.00
2023-04-18T13:53:36.893Z,15.70
2023-04-18T13:56:24.321Z,15.50
2023-04-18T13:59:11.801Z,15.40
2023-04-18T14:01:59.506Z,15.10
2023-04-18T14:04:46.987Z,15.20
2023-04-18T14:07:34.423Z,14.90
2023-04-18T14:10:21.810Z,14.90
2023-04-18T14:13:09.201Z,14.80
2023-04-18T14:15:56.499Z,14.90
2023-04-18T14:18:43.854Z,14.90
2023-04-18T14:21:31.338Z,15.10
2023-04-18T14:24:18.785Z,14.70
2023-04-18T14:27:06.065Z,14.70
2023-04-18T14:29:53.389Z,15.00
2023-04-18T14:32:41.085Z,15.90
2023-04-18T14:35:28.438Z,15.60
2023-04-18T14:38:16.925Z,15.70
2023-04-18T14:41:05.046Z,16.10
2023-04-18T14:43:52.411Z,16.50
2023-04-18T14:46:39.913Z,18.40
2023-04-18T14:49:27.446Z,20.10
2023-04-18T14:52:14.682Z,21.10
2023-04-18T14:55:01.940Z,20.20
2023-04-18T14:57:49.221Z,18.70
2023-04-18T15:00:37.273Z,17.60
2023-04-18T15:03:24.924Z,16.60
2023-04-18T15:06:12.620Z,16.10
2023-04-18T15:09:00.057Z,16.00
2023-04-18T15:11:47.299Z,15.90
2023-04-18T15:14:37.573Z,17.10
2023-04-18T15:17:24.918Z,17.30
2023-04-18T15:20:12.209Z,17.10
2023-04-18T15:22:59.505Z,16.60
2023-04-18T15:25:46.827Z,15.90
2023-04-18T15:28:34.166Z,15.60
2023-04-18T15:31:21.927Z,15.20
2023-04-18T15:34:09.302Z,15.20
2023-04-18T15:36:56.667Z,14.90
2023-04-18T15:39:43.959Z,15.10
2023-04-18T15:42:31.287Z,15.40
2023-04-18T15:45:18.703Z,15.60
2023-04-18T15:48:06.145Z,15.50
2023-04-18T15:50:53.584Z,15.70
2023-04-18T15:53:41.184Z,15.60
2023-04-18T15:56:28.890Z,15.70
2023-04-18T15:59:17.086Z,15.70
2023-04-18T16:02:06.521Z,15.70
2023-04-18T16:04:54.183Z,15.60
2023-04-18T16:07:42.456Z,15.30
2023-04-18T16:10:29.839Z,14.80
2023-04-18T16:13:17.301Z,14.50
2023-04-18T16:16:05.722Z,14.30
2023-04-18T16:18:53.129Z,14.40
2023-04-18T16:21:40.686Z,14.30
2023-04-18T16:24:30.330Z,14.30
2023-04-18T16:27:17.622Z,14.30
2023-04-18T16:30:05.391Z,14.20
2023-04-18T16:32:52.868Z,14.10
2023-04-18T16:35:40.389Z,14.10
2023-04-18T16:38:27.731Z,14.00
2023-04-18T16:41:14.979Z,14.00
2023-04-18T16:44:02.276Z,14.00
2023-04-18T16:46:49.660Z,13.90
2023-04-18T16:49:37.627Z,13.90
2023-04-18T16:52:25.074Z,14.00
2023-04-18T16:55:12.337Z,13.80
2023-04-18T16:57:59.616Z,13.70
2023-04-18T17:00:47.387Z,13.40
2023-04-18T17:03:34.834Z,13.20
2023-04-18T17:06:24.991Z,13.20
2023-04-18T17:09:14.840Z,13.10
2023-04-18T17:12:02.633Z,13.00
2023-04-18T17:14:50.143Z,13.10
2023-04-18T17:17:37.469Z,12.90
2023-04-18T17:20:24.915Z,12.80
2023-04-18T17:23:12.256Z,12.70
2023-04-18T17:25:59.651Z,12.70
2023-04-18T17:28:46.976Z,12.70
2023-04-18T17:31:34.506Z,12.70
2023-04-18T17:34:22.029Z,12.70
2023-04-18T17:37:09.354Z,12.60
2023-04-18T17:39:58.461Z,12.60
2023-04-18T17:42:45.775Z,12.50
2023-04-18T17:45:33.094Z,12.50
2023-04-18T17:48:20.308Z,12.40
2023-04-18T17:51:07.590Z,12.40
2023-04-18T17:53:55.234Z,12.40
2023-04-18T17:56:42.490Z,12.30
2023-04-18T17:59:29.799Z,12.30
2023-04-18T18:02:17.259Z,12.30
2023-04-18T18:05:05.714Z,12.20
2023-04-18T18:07:54.336Z,12.20
2023-04-18T18:10:42.759Z,12.10
2023-04-18T18:13:30.019Z,12.10
2023-04-18T18:16:17.538Z,12.00
2023-04-18T18:19:07.601Z,12.00
2023-04-18T18:21:54.913Z,11.90
2023-04-18T18:24:42.213Z,12.00
2023-04-18T18:27:29.564Z,12.00
2023-04-18T18:30:17.485Z,11.90
2023-04-18T18:33:04.777Z,11.80
2023-04-18T18:35:52.048Z,11.80
2023-04-18T18:38:39.322Z,11.70
2023-04-18T18:41:26.604Z,11.70
2023-04-18T18:44:13.906Z,11.70
2023-04-18T18:47:01.442Z,11.70
2023-04-18T18:49:48.925Z,11.60
2023-04-18T18:52:37.345Z,11.60
2023-04-18T18:55:24.663Z,11.60
2023-04-18T18:58:11.973Z,11.50
2023-04-18T19:01:02.446Z,11.50
2023-04-18T19:03:49.826Z,11.40
2023-04-18T19:06:37.278Z,11.40
2023-04-18T19:09:24.588Z,11.30
2023-04-18T19:12:11.985Z,11.30
2023-04-18T19:14:59.245Z,11.30
2023-04-18T19:17:46.785Z,11.30
2023-04-18T19:20:34.154Z,11.30
2023-04-18T19:23:23.856Z,11.20
2023-04-18T19:26:11.151Z,11.10
2023-04-18T19:28:58.531Z,11.10
2023-04-18T19:31:45.874Z,11.20
2023-04-18T19:34:33.157Z,11.00
2023-04-18T19:37:20.500Z,11.00
2023-04-18T19:40:08.103Z,10.90
2023-04-18T19:42:55.394Z,11.10
2023-04-18T19:45:42.794Z,11.10
2023-04-18T19:48:30.234Z,11.00
2023-04-18T19:51:17.566Z,10.90
2023-04-18T19:54:04.903Z,11.00
2023-04-18T19:56:52.267Z,10.90
2023-04-18T19:59:39.565Z,10.90
2023-04-18T20:02:27.048Z,10.90
2023-04-18T20:05:14.603Z,10.90
2023-04-18T20:08:01.988Z,10.90
2023-04-18T20:10:49.341Z,10.80
2023-04-18T20:13:37.521Z,10.80
2023-04-18T20:16:24.902Z,10.70
2023-04-18T20:19:12.946Z,10.80
2023-04-18T20:22:00.256Z,10.80
2023-04-18T20:24:49.211Z,10.80
2023-04-18T20:27:36.495Z,10.80
2023-04-18T20:30:23.984Z,10.80
2023-04-18T20:33:11.460Z,10.80
2023-04-18T20:35:59.047Z,10.70
2023-04-18T20:38:46.410Z,10.70
2023-04-18T20:41:34.833Z,10.80
2023-04-18T20:44:22.321Z,10.70
2023-04-18T20:47:09.685Z,10.60
2023-04-18T20:49:57.049Z,10.70
2023-04-18T20:52:44.630Z,10.80
2023-04-18T20:55:31.964Z,10.70
2023-04-18T20:58:19.258Z,10.60
2023-04-18T21:01:07.178Z,10.60
2023-04-18T21:03:54.699Z,10.50
2023-04-18T21:06:42.092Z,10.50
2023-04-18T21:09:31.048Z,10.50
2023-04-18T21:12:18.461Z,10.60
2023-04-18T21:15:06.181Z,10.50
2023-04-18T21:17:53.712Z,10.50
2023-04-18T21:20:41.068Z,10.50
2023-04-18T21:23:28.368Z,10.50
2023-04-18T21:26:15.694Z,10.40
2023-04-18T21:29:04.814Z,10.40
2023-04-18T21:31:52.501Z,10.40
2023-04-18T21:34:39.762Z,10.40
2023-04-18T21:37:27.043Z,10.40
2023-04-18T21:40:14.762Z,10.40
2023-04-18T21:43:02.107Z,10.40
2023-04-18T21:45:49.761Z,10.30
2023-04-18T21:48:37.645Z,10.30
2023-04-18T21:51:24.967Z,10.20
2023-04-18T21:54:12.613Z,10.20
2023-04-18T21:57:00.010Z,10.20
2023-04-18T21:59:47.247Z,10.20
2023-04-18T22:02:34.633Z,10.00
2023-04-18T22:05:21.940Z,10.10
2023-04-18T22:08:10.112Z,10.20
2023-04-18T22:10:58.430Z,10.20
2023-04-18T22:13:46.112Z,10.10
2023-04-18T22:16:33.652Z,10.20
2023-04-18T22:19:21.060Z,10.20
2023-04-18T22:22:08.431Z,10.10
2023-04-18T22:24:55.818Z,10.10
2023-04-18T22:27:43.296Z,10.00
2023-04-18T22:30:31.111Z,10.10
2023-04-18T22:33:18.477Z,10.10
2023-04-18T22:36:06.071Z,10.00
2023-04-18T22:38:53.296Z,9.90
2023-04-18T22:41:40.521Z,9.90
2023-04-18T22:44:27.827Z,9.90
2023-04-18T22:47:15.391Z,9.80
2023-04-18T22:50:02.659Z,9.80
2023-04-18T22:52:50.750Z,9.80
2023-04-18T22:55:39.135Z,9.70
2023-04-18T22:58:26.542Z,9.80
2023-04-18T23:01:13.999Z,9.80
2023-04-18T23:04:01.628Z,9.90
2023-04-18T23:06:49.017Z,9.80
2023-04-18T23:09:36.254Z,9.70
2023-04-18T23:12:23.598Z,9.60
2023-04-18T23:15:11.684Z,9.80
2023-04-18T23:17:59.195Z,9.80
2023-04-18T23:20:46.520Z,9.80
2023-04-18T23:23:33.819Z,9.80
2023-04-18T23:26:21.483Z,9.80
2023-04-18T23:29:08.702Z,9.70
2023-04-18T23:31:56.053Z,9.80
2023-04-18T23:34:44.873Z,9.70
2023-04-18T23:37:32.195Z,9.60
2023-04-18T23:40:19.476Z,9.60
2023-04-18T23:43:06.755Z,9.70
2023-04-18T23:45:54.078Z,9.60
2023-04-18T23:48:41.690Z,9.60
2023-04-18T23:51:28.963Z,9.70
2023-04-18T23:54:16.405Z,9.60
2023-04-18T23:57:03.830Z,9.60
2023-04-18T23:59:51.114Z,9.50
